createdAt,value
2023-02-13T00:02:03.713Z,11.83
2023-02-13T00:05:05.715Z,11.77
2023-02-13T00:08:07.504Z,10.13
2023-02-13T00:11:09.245Z,12.73
2023-02-13T00:14:10.994Z,10.33
2023-02-13T00:17:12.712Z,11.87
2023-02-13T00:20:14.478Z,11.40
2023-02-13T00:23:16.186Z,12.10
2023-02-13T00:26:18.564Z,11.63
2023-02-13T00:29:22.003Z,11.40
2023-02-13T00:32:23.720Z,11.17
2023-02-13T00:35:25.444Z,11.60
2023-02-13T00:38:29.948Z,11.63
2023-02-13T00:41:31.689Z,11.37
2023-02-13T00:44:33.670Z,11.63
2023-02-13T00:47:36.372Z,10.77
2023-02-13T00:50:38.126Z,10.70
2023-02-13T00:53:40.012Z,11.33
2023-02-13T00:56:42.757Z,10.20
2023-02-13T00:59:44.484Z,10.73
2023-02-13T01:02:46.204Z,12.03
2023-02-13T01:05:48.432Z,10.87
2023-02-13T01:08:50.222Z,11.57
2023-02-13T01:11:51.925Z,11.13
2023-02-13T01:14:53.618Z,11.50
2023-02-13T01:17:57.399Z,11.80
2023-02-13T01:21:17.211Z,11.90
2023-02-13T01:24:19.184Z,11.97
2023-02-13T01:27:21.077Z,10.43
2023-02-13T01:30:22.846Z,10.53
2023-02-13T01:33:25.928Z,11.27
2023-02-13T01:36:27.848Z,11.60
2023-02-13T01:39:29.791Z,12.53
2023-02-13T01:42:33.959Z,11.50
2023-02-13T01:45:35.627Z,12.40
2023-02-13T01:48:37.333Z,10.47
2023-02-13T01:51:40.085Z,11.03
2023-02-13T01:54:42.485Z,10.57
2023-02-13T01:57:52.637Z,12.03
2023-02-13T02:00:54.775Z,11.83
2023-02-13T02:04:10.278Z,12.50
2023-02-13T02:07:17.852Z,12.20
2023-02-13T02:10:22.288Z,11.80
2023-02-13T02:13:26.057Z,11.30
2023-02-13T02:16:29.749Z,12.63
2023-02-13T02:19:37.635Z,11.40
2023-02-13T02:22:54.558Z,11.40
2023-02-13T02:26:27.843Z,10.77
2023-02-13T02:30:03.569Z,11.03
2023-02-13T02:33:30.910Z,11.30
2023-02-13T02:37:12.143Z,11.30
2023-02-13T02:40:42.185Z,10.17
2023-02-13T02:44:25.640Z,13.10
2023-02-13T02:48:11.942Z,12.03
2023-02-13T02:51:38.252Z,12.93
2023-02-13T02:55:09.357Z,12.77
2023-02-13T02:58:50.159Z,11.27
2023-02-13T03:02:15.904Z,12.40
2023-02-13T03:05:50.052Z,13.00
2023-02-13T03:09:16.230Z,13.63
2023-02-13T03:12:40.897Z,12.00
2023-02-13T03:16:03.668Z,12.40
2023-02-13T03:19:24.321Z,12.13
2023-02-13T03:22:44.765Z,12.20
2023-02-13T03:26:15.680Z,11.57
2023-02-13T03:29:51.252Z,12.27
2023-02-13T03:33:14.579Z,11.13
2023-02-13T03:36:38.215Z,11.30
2023-02-13T03:40:05.421Z,11.93
2023-02-13T03:43:17.303Z,13.10
2023-02-13T03:46:19.871Z,12.67
2023-02-13T03:49:59.815Z,11.63
2023-02-13T03:53:09.310Z,11.13
2023-02-13T03:56:32.765Z,12.77
2023-02-13T03:59:36.926Z,12.43
2023-02-13T04:02:56.892Z,12.43
2023-02-13T04:06:11.018Z,12.73
2023-02-13T04:09:13.012Z,12.33
2023-02-13T04:12:18.706Z,13.67
2023-02-13T04:15:28.636Z,12.27
2023-02-13T04:18:32.950Z,13.17
2023-02-13T04:21:40.271Z,12.93
2023-02-13T04:24:42.027Z,12.33
2023-02-13T04:27:43.807Z,12.87
2023-02-13T04:30:45.582Z,13.30
2023-02-13T04:33:47.359Z,12.63
2023-02-13T04:36:49.088Z,12.80
2023-02-13T04:39:50.870Z,12.73
2023-02-13T04:42:52.591Z,12.07
2023-02-13T04:45:54.349Z,13.00
2023-02-13T04:48:56.224Z,12.27
2023-02-13T04:51:57.957Z,11.43
2023-02-13T04:54:59.661Z,13.53
2023-02-13T04:58:01.440Z,12.23
2023-02-13T05:01:03.192Z,12.13
2023-02-13T05:04:05.037Z,11.37
2023-02-13T05:07:06.781Z,12.33
2023-02-13T05:10:10.113Z,11.03
2023-02-13T05:13:12.209Z,11.90
2023-02-13T05:16:14.009Z,10.33
2023-02-13T05:19:16.638Z,9.50
2023-02-13T05:22:37.175Z,10.33
2023-02-13T05:25:41.136Z,9.13
2023-02-13T05:29:01.349Z,9.33
2023-02-13T05:32:03.257Z,8.30
2023-02-13T05:35:05.570Z,8.53
2023-02-13T05:38:07.325Z,7.13
2023-02-13T05:41:09.126Z,6.67
2023-02-13T05:44:11.587Z,6.97
2023-02-13T05:47:13.342Z,6.53
2023-02-13T05:50:15.104Z,7.03
2023-02-13T05:53:16.832Z,5.90
2023-02-13T05:56:18.564Z,6.30
2023-02-13T05:59:21.840Z,6.10
2023-02-13T06:02:24.572Z,5.20
2023-02-13T06:05:26.344Z,6.27
2023-02-13T06:08:28.658Z,5.83
2023-02-13T06:11:30.469Z,6.23
2023-02-13T06:14:32.373Z,6.37
2023-02-13T06:17:34.197Z,6.93
2023-02-13T06:20:36.111Z,5.70
2023-02-13T06:23:37.900Z,6.10
2023-02-13T06:26:39.665Z,5.43
2023-02-13T06:29:41.428Z,6.10
2023-02-13T06:32:43.929Z,5.93
2023-02-13T06:35:45.650Z,5.57
2023-02-13T06:38:47.404Z,6.03
2023-02-13T06:41:49.145Z,6.50
2023-02-13T06:44:50.944Z,5.50
2023-02-13T06:47:52.810Z,5.83
2023-02-13T06:50:54.750Z,5.33
2023-02-13T06:53:56.705Z,5.93
2023-02-13T06:56:58.455Z,5.20
2023-02-13T07:00:03.682Z,5.90
2023-02-13T07:03:06.378Z,5.37
2023-02-13T07:06:08.287Z,4.80
2023-02-13T07:09:10.713Z,5.67
2023-02-13T07:12:12.402Z,5.10
2023-02-13T07:15:14.191Z,5.67
2023-02-13T07:18:15.932Z,4.77
2023-02-13T07:21:17.676Z,6.03
2023-02-13T07:24:19.438Z,5.03
2023-02-13T07:27:21.165Z,5.50
2023-02-13T07:30:22.905Z,5.27
2023-02-13T07:33:24.718Z,4.70
2023-02-13T07:36:27.080Z,4.07
2023-02-13T07:39:28.794Z,4.70
2023-02-13T07:42:34.258Z,4.90
2023-02-13T07:45:36.097Z,5.00
2023-02-13T07:48:37.833Z,5.13
2023-02-13T07:51:39.561Z,4.73
2023-02-13T07:54:47.232Z,5.70
2023-02-13T07:57:49.640Z,4.83
2023-02-13T08:00:51.853Z,5.47
2023-02-13T08:03:53.676Z,4.63
2023-02-13T08:06:55.457Z,4.80
2023-02-13T08:10:15.822Z,4.77
2023-02-13T08:13:18.131Z,5.27
2023-02-13T08:16:19.949Z,4.87
2023-02-13T08:19:21.809Z,5.13
2023-02-13T08:22:23.873Z,4.30
2023-02-13T08:25:25.623Z,4.47
2023-02-13T08:28:28.711Z,4.13
2023-02-13T08:31:30.639Z,5.00
2023-02-13T08:34:32.565Z,4.97
2023-02-13T08:37:34.247Z,4.50
2023-02-13T08:40:36.072Z,5.03
2023-02-13T08:43:37.846Z,5.00
2023-02-13T08:46:39.682Z,4.73
2023-02-13T08:49:41.485Z,5.73
2023-02-13T08:52:43.220Z,5.07
2023-02-13T08:55:56.188Z,5.43
2023-02-13T08:58:58.228Z,5.17
2023-02-13T09:01:59.926Z,5.20
2023-02-13T09:05:01.709Z,4.93
2023-02-13T09:08:03.994Z,4.97
2023-02-13T09:11:07.254Z,5.17
2023-02-13T09:14:09.048Z,5.33
2023-02-13T09:17:10.748Z,5.60
2023-02-13T09:20:13.968Z,5.87
2023-02-13T09:23:15.739Z,6.27
2023-02-13T09:26:20.438Z,5.47
2023-02-13T09:29:22.587Z,5.67
2023-02-13T09:32:24.659Z,5.07
2023-02-13T09:35:26.761Z,5.40
2023-02-13T09:38:28.456Z,5.77
2023-02-13T09:41:37.556Z,4.57
2023-02-13T09:44:43.430Z,5.10
2023-02-13T09:47:45.714Z,5.53
2023-02-13T09:50:47.456Z,5.83
2023-02-13T09:54:05.459Z,7.53
2023-02-13T09:57:33.196Z,7.27
2023-02-13T10:00:41.655Z,8.30
2023-02-13T10:04:02.762Z,7.93
2023-02-13T10:07:21.716Z,9.03
2023-02-13T10:10:40.149Z,9.17
2023-02-13T10:14:07.062Z,10.63
2023-02-13T10:17:14.483Z,9.10
2023-02-13T10:20:32.520Z,10.57
2023-02-13T10:23:44.547Z,10.57
2023-02-13T10:26:47.371Z,9.93
2023-02-13T10:30:09.182Z,10.20
2023-02-13T10:33:18.751Z,9.60
2023-02-13T10:36:31.548Z,11.30
2023-02-13T10:39:33.284Z,9.43
2023-02-13T10:42:46.292Z,9.10
2023-02-13T10:46:00.026Z,9.97
2023-02-13T10:49:39.407Z,9.53
2023-02-13T10:53:09.754Z,9.90
2023-02-13T10:56:34.120Z,8.37
2023-02-13T11:00:10.522Z,8.83
2023-02-13T11:03:27.140Z,8.53
2023-02-13T11:06:30.141Z,8.83
2023-02-13T11:09:40.320Z,8.60
2023-02-13T11:12:42.139Z,7.13
2023-02-13T11:16:06.409Z,7.93
2023-02-13T11:19:20.320Z,6.90
2023-02-13T11:22:33.409Z,7.00
2023-02-13T11:25:35.153Z,6.50
2023-02-13T11:28:45.396Z,6.70
2023-02-13T11:31:49.990Z,5.70
2023-02-13T11:34:52.005Z,5.03
2023-02-13T11:38:24.078Z,5.37
2023-02-13T11:41:26.726Z,5.33
2023-02-13T11:44:32.904Z,5.20
2023-02-13T11:47:40.709Z,5.00
2023-02-13T11:50:44.353Z,5.77
2023-02-13T11:53:46.055Z,5.17
2023-02-13T11:57:04.011Z,5.37
2023-02-13T12:00:26.959Z,4.73
2023-02-13T12:03:31.821Z,5.33
2023-02-13T12:06:39.734Z,5.00
2023-02-13T12:09:43.177Z,5.53
2023-02-13T12:12:53.740Z,5.43
2023-02-13T12:16:06.708Z,5.47
2023-02-13T12:19:17.016Z,5.27
2023-02-13T12:22:42.288Z,5.90
2023-02-13T12:26:17.204Z,5.07
2023-02-13T12:29:45.134Z,5.07
2023-02-13T12:33:17.042Z,4.90
2023-02-13T12:36:48.216Z,5.17
2023-02-13T12:40:04.817Z,5.90
2023-02-13T12:43:29.078Z,5.63
2023-02-13T12:47:11.408Z,5.80
2023-02-13T12:50:42.199Z,5.33
2023-02-13T12:53:49.814Z,5.43
2023-02-13T12:57:01.955Z,4.83
2023-02-13T13:00:18.534Z,5.00
2023-02-13T13:03:52.543Z,5.20
2023-02-13T13:07:44.086Z,5.10
2023-02-13T13:11:12.213Z,4.65
2023-02-13T13:14:19.723Z,4.43
2023-02-13T13:17:36.616Z,4.40
2023-02-13T13:20:52.051Z,5.00
2023-02-13T13:24:00.171Z,5.00
2023-02-13T13:27:03.550Z,4.50
2023-02-13T13:30:07.049Z,5.07
2023-02-13T13:33:18.661Z,4.83
2023-02-13T13:36:32.468Z,5.23
2023-02-13T13:40:13.282Z,4.33
2023-02-13T13:43:22.481Z,4.70
2023-02-13T13:46:56.218Z,4.60
2023-02-13T13:50:00.806Z,4.55
2023-02-13T13:53:15.663Z,4.22
2023-02-13T13:56:17.359Z,4.25
2023-02-13T13:59:37.649Z,4.18
2023-02-13T14:02:50.754Z,4.47
2023-02-13T14:06:23.379Z,4.57
2023-02-13T14:09:28.095Z,4.53
2023-02-13T14:12:29.773Z,3.75
2023-02-13T14:15:34.800Z,4.07
2023-02-13T14:18:38.667Z,4.23
2023-02-13T14:21:40.415Z,4.23
2023-02-13T14:24:44.272Z,3.80
2023-02-13T14:28:00.193Z,3.90
2023-02-13T14:31:41.039Z,3.60
2023-02-13T14:34:50.706Z,4.03
2023-02-13T14:38:00.041Z,3.93
2023-02-13T14:41:02.232Z,3.30
2023-02-13T14:44:04.128Z,4.03
2023-02-13T14:47:20.201Z,3.80
2023-02-13T14:50:53.224Z,3.40
2023-02-13T14:54:01.483Z,3.90
2023-02-13T14:57:18.224Z,3.95
2023-02-13T15:00:32.100Z,3.15
2023-02-13T15:03:42.591Z,3.83
2023-02-13T15:06:45.918Z,3.95
2023-02-13T15:10:01.413Z,4.20
2023-02-13T15:13:03.951Z,3.60
2023-02-13T15:16:12.684Z,3.93
2023-02-13T15:19:20.112Z,4.17
2023-02-13T15:27:14.764Z,4.53
2023-02-13T15:30:26.045Z,4.40
2023-02-13T15:33:34.388Z,4.53
2023-02-13T15:36:41.442Z,4.73
2023-02-13T15:39:43.158Z,4.20
2023-02-13T15:42:45.052Z,4.87
2023-02-13T15:45:46.904Z,4.27
2023-02-13T15:48:49.171Z,4.17
2023-02-13T15:52:01.081Z,4.83
2023-02-13T15:55:03.403Z,4.23
2023-02-13T15:58:05.536Z,4.20
2023-02-13T16:01:10.049Z,4.37
2023-02-13T16:04:17.480Z,4.20
2023-02-13T16:07:20.495Z,4.43
2023-02-13T16:10:36.488Z,4.17
2023-02-13T16:13:38.333Z,3.83
2023-02-13T16:16:48.815Z,4.03
2023-02-13T16:20:00.510Z,4.83
2023-02-13T16:23:13.451Z,4.37
2023-02-13T16:26:16.936Z,5.03
2023-02-13T16:29:26.245Z,5.07
2023-02-13T16:32:31.258Z,4.27
2023-02-13T16:35:37.939Z,4.43
2023-02-13T16:38:47.884Z,5.00
2023-02-13T16:41:50.572Z,5.43
2023-02-13T16:45:23.010Z,5.40
2023-02-13T16:48:27.471Z,5.17
2023-02-13T16:51:50.219Z,4.20
2023-02-13T16:55:03.214Z,4.90
2023-02-13T16:58:05.551Z,5.27
2023-02-13T17:01:07.641Z,5.80
2023-02-13T17:08:37.371Z,5.70
2023-02-13T17:11:39.784Z,5.97
2023-02-13T17:14:42.078Z,6.10
2023-02-13T17:17:44.246Z,6.10
2023-02-13T17:20:49.748Z,5.83
2023-02-13T17:23:51.509Z,6.63
2023-02-13T17:26:53.295Z,6.20
2023-02-13T17:29:55.310Z,6.07
2023-02-13T17:33:02.680Z,6.77
2023-02-13T17:36:04.887Z,5.83
2023-02-13T17:39:06.705Z,6.90
2023-02-13T17:42:15.769Z,6.30
2023-02-13T17:45:19.661Z,7.13
2023-02-13T17:48:21.386Z,8.23
2023-02-13T17:51:23.374Z,7.77
2023-02-13T17:54:25.428Z,8.53
2023-02-13T17:57:27.200Z,7.63
2023-02-13T18:00:31.703Z,8.10
2023-02-13T18:03:33.443Z,8.53
2023-02-13T18:06:35.234Z,8.87
2023-02-13T18:09:37.368Z,9.70
2023-02-13T18:12:40.581Z,10.00
2023-02-13T18:15:45.058Z,11.10
2023-02-13T18:18:46.886Z,10.13
2023-02-13T18:21:48.626Z,8.97
2023-02-13T18:24:51.923Z,8.47
2023-02-13T18:27:55.496Z,8.63
2023-02-13T18:30:57.999Z,8.20
2023-02-13T18:33:59.931Z,8.67
2023-02-13T18:37:02.125Z,7.87
2023-02-13T18:40:04.059Z,7.57
2023-02-13T18:43:05.988Z,6.20
2023-02-13T18:46:07.738Z,6.83
2023-02-13T18:49:12.302Z,6.33
2023-02-13T18:52:14.156Z,6.97
2023-02-13T18:55:16.538Z,6.83
2023-02-13T18:58:18.455Z,6.13
2023-02-13T19:01:21.524Z,6.97
2023-02-13T19:04:23.351Z,7.37
2023-02-13T19:07:25.107Z,7.17
2023-02-13T19:10:26.908Z,7.13
2023-02-13T19:13:28.695Z,7.27
2023-02-13T19:16:31.893Z,8.17
2023-02-13T19:19:33.656Z,7.27
2023-02-13T19:22:35.473Z,8.30
2023-02-13T19:25:38.175Z,8.27
2023-02-13T19:28:40.565Z,9.00
2023-02-13T19:31:42.437Z,8.37
2023-02-13T19:34:44.514Z,8.90
2023-02-13T19:37:46.171Z,8.57
2023-02-13T19:40:47.953Z,8.47
2023-02-13T19:43:50.974Z,8.03
2023-02-13T19:46:52.908Z,8.00
2023-02-13T19:49:54.945Z,7.33
2023-02-13T19:52:56.765Z,7.17
2023-02-13T19:55:59.906Z,7.23
2023-02-13T19:59:01.812Z,9.10
2023-02-13T20:02:03.783Z,9.30
2023-02-13T20:05:08.198Z,7.87
2023-02-13T20:08:10.965Z,9.63
2023-02-13T20:11:14.998Z,8.47
2023-02-13T20:14:17.296Z,8.20
2023-02-13T20:17:19.039Z,8.67
2023-02-13T20:20:21.038Z,7.77
2023-02-13T20:23:23.002Z,8.10
2023-02-13T20:26:24.982Z,7.10
2023-02-13T20:29:26.850Z,7.90
2023-02-13T20:32:28.665Z,7.57
2023-02-13T20:35:31.512Z,9.33
2023-02-13T20:38:33.327Z,7.53
2023-02-13T20:41:37.271Z,7.87
2023-02-13T20:44:39.334Z,8.80
2023-02-13T20:47:42.814Z,8.53
2023-02-13T20:50:44.575Z,8.37
2023-02-13T20:53:46.933Z,9.20
2023-02-13T20:56:48.771Z,9.13
2023-02-13T20:59:50.604Z,8.10
2023-02-13T21:02:52.425Z,8.40
2023-02-13T21:05:54.420Z,9.50
2023-02-13T21:08:56.671Z,18.10
2023-02-13T21:11:58.434Z,15.80
2023-02-13T21:15:00.277Z,15.70
2023-02-13T21:18:03.651Z,12.97
2023-02-13T21:21:06.457Z,10.97
2023-02-13T21:24:11.169Z,10.83
2023-02-13T21:27:12.918Z,9.07
2023-02-13T21:30:15.048Z,8.67
2023-02-13T21:33:16.757Z,7.73
2023-02-13T21:36:18.713Z,8.30
2023-02-13T21:39:20.490Z,8.83
2023-02-13T21:42:22.239Z,9.57
2023-02-13T21:45:24.030Z,11.10
2023-02-13T21:48:25.823Z,13.73
2023-02-13T21:51:29.463Z,13.37
2023-02-13T21:54:31.176Z,13.80
2023-02-13T21:57:34.529Z,14.23
2023-02-13T22:00:36.206Z,8.10
2023-02-13T22:03:38.156Z,9.33
2023-02-13T22:06:40.755Z,8.73
2023-02-13T22:09:42.528Z,7.03
2023-02-13T22:12:44.216Z,7.77
2023-02-13T22:15:46.172Z,7.07
2023-02-13T22:18:50.465Z,6.03
2023-02-13T22:21:52.201Z,8.10
2023-02-13T22:24:54.135Z,7.77
2023-02-13T22:27:55.822Z,7.73
2023-02-13T22:30:58.455Z,7.33
2023-02-13T22:34:05.317Z,8.53
2023-02-13T22:37:08.373Z,8.63
2023-02-13T22:40:10.426Z,8.57
2023-02-13T22:43:12.171Z,7.40
2023-02-13T22:46:15.358Z,7.63
2023-02-13T22:49:17.126Z,7.93
2023-02-13T22:52:18.872Z,7.30
2023-02-13T22:55:20.651Z,8.43
2023-02-13T22:58:22.488Z,7.93
2023-02-13T23:01:26.211Z,7.40
2023-02-13T23:04:27.885Z,7.93
2023-02-13T23:07:29.777Z,7.13
2023-02-13T23:10:31.679Z,6.97
2023-02-13T23:13:33.418Z,7.27
2023-02-13T23:16:53.762Z,7.27
2023-02-13T23:19:55.474Z,6.70
2023-02-13T23:22:57.307Z,7.97
2023-02-13T23:26:04.060Z,7.13
2023-02-13T23:29:05.742Z,6.97
2023-02-13T23:32:07.521Z,6.63
2023-02-13T23:35:09.696Z,6.03
2023-02-13T23:38:11.398Z,5.50
2023-02-13T23:44:26.576Z,5.30
2023-02-13T23:47:28.271Z,5.60
2023-02-13T23:50:30.354Z,6.97
2023-02-13T23:53:35.773Z,5.63
2023-02-13T23:56:37.476Z,5.13
2023-02-13T23:59:39.346Z,5.97
